Time;durP1;ratioP1;P1;durP2;ratioP2;P2;SDS_P1;SDS_P2;PMS_P1;PMS_P2;Temp;Humidity;BMP_temperature;BMP_pressure;BME280_temperature;BME280_humidity;BME280_pressure;Samples;Min_cycle;Max_cycle;Signal;HPM_P1;HPM_P2
2023/07/25 00:00:30;;;;;;;;;;;;;;;23.18;100.00;96970.72;5046261;28;19989;-72
2023/07/25 00:02:57;;;;;;;;;;;;;;;23.26;100.00;96947.91;5027967;28;19936;-72
2023/07/25 00:05:23;;;;;;;;;;;;;;;23.25;100.00;96949.06;5044039;28;19981;-72
2023/07/25 00:07:49;;;;;;;;;;;;;;;23.07;100.00;96948.03;5045127;28;19960;-72
2023/07/25 00:10:18;;;;;;;;;;;;;;;22.90;100.00;96954.00;5042724;28;20347;-72
2023/07/25 00:12:44;;;;;;;;;;;;;;;23.09;100.00;96951.94;5023491;28;19925;-72
2023/07/25 00:15:11;;;;;;;;;;;;;;;23.06;100.00;96951.88;5025177;28;19964;-72
2023/07/25 00:17:39;;;;;;;;;;;;;;;23.15;100.00;96955.13;5040728;28;19925;-72
2023/07/25 00:20:06;;;;;;;;;;;;;;;23.12;100.00;96944.97;5040720;28;19926;-72
2023/07/25 00:22:32;;;;;;;;;;;;;;;23.14;100.00;96942.69;5043143;28;19926;-72
2023/07/25 00:24:58;;;;;;;;;;;;;;;23.11;100.00;96941.47;5043838;28;19988;-72
2023/07/25 00:27:25;;;;;;;;;;;;;;;23.09;100.00;96945.72;5024486;28;19925;-72
2023/07/25 00:29:52;;;;;;;;;;;;;;;22.99;100.00;96930.03;5039927;28;19925;-72
2023/07/25 00:32:18;;;;;;;;;;;;;;;22.92;100.00;96948.97;5040558;28;19994;-71
2023/07/25 00:34:46;;;;;;;;;;;;;;;22.80;100.00;96949.16;5043802;28;19925;-72
2023/07/25 00:37:12;;;;;;;;;;;;;;;22.83;100.00;96959.31;5043605;28;19948;-72
2023/07/25 00:39:39;;;;;;;;;;;;;;;22.70;100.00;96966.09;5040229;28;19972;-72
2023/07/25 00:42:06;;;;;;;;;;;;;;;22.63;100.00;96955.84;5040441;28;19995;-72
2023/07/25 00:44:32;;;;;;;;;;;;;;;22.68;100.00;96960.25;5042757;28;19940;-72
2023/07/25 00:46:58;;;;;;;;;;;;;;;22.57;100.00;96955.38;5045317;28;20012;-72
2023/07/25 00:49:25;;;;;;;;;;;;;;;22.63;100.00;96960.50;5041797;28;20077;-72
2023/07/25 00:51:52;;;;;;;;;;;;;;;22.55;100.00;96959.63;5043760;28;19984;-72
2023/07/25 00:54:19;;;;;;;;;;;;;;;22.59;100.00;96963.19;5042638;28;20097;-72
2023/07/25 00:56:45;;;;;;;;;;;;;;;22.62;100.00;96967.13;5022202;28;19971;-71
2023/07/25 00:59:12;;;;;;;;;;;;;;;22.70;100.00;96966.91;5022007;28;19926;-70
2023/07/25 01:01:38;;;;;;;;;;;;;;;22.78;100.00;96956.91;5031662;28;19925;-70
2023/07/25 01:04:05;;;;;;;;;;;;;;;22.83;100.00;96965.56;5014182;28;19926;-70
2023/07/25 01:06:31;;;;;;;;;;;;;;;22.79;100.00;96958.47;5031471;28;19925;-70
2023/07/25 01:08:59;;;;;;;;;;;;;;;22.75;100.00;96949.47;5031465;28;19952;-71
2023/07/25 01:11:25;;;;;;;;;;;;;;;22.75;100.00;96955.69;5031370;28;19957;-70
2023/07/25 01:13:52;;;;;;;;;;;;;;;22.74;100.00;96945.19;5031148;28;19971;-71
2023/07/25 01:16:20;;;;;;;;;;;;;;;22.72;100.00;96942.03;5041579;28;19965;-71
2023/07/25 01:18:47;;;;;;;;;;;;;;;22.79;100.00;96931.25;5039420;28;19961;-71
2023/07/25 01:21:14;;;;;;;;;;;;;;;22.79;100.00;96937.50;5039590;28;19925;-71
2023/07/25 01:23:41;;;;;;;;;;;;;;;22.74;100.00;96935.09;5042679;28;19971;-71
2023/07/25 01:26:09;;;;;;;;;;;;;;;22.74;100.00;96935.09;5042719;28;19932;-71
2023/07/25 01:28:37;;;;;;;;;;;;;;;22.70;100.00;96928.00;5039496;28;19932;-71
2023/07/25 01:31:04;;;;;;;;;;;;;;;22.66;100.00;96919.78;5039297;28;19926;-71
2023/07/25 01:33:30;;;;;;;;;;;;;;;22.59;100.00;96912.25;5041522;28;19926;-71
2023/07/25 01:35:57;;;;;;;;;;;;;;;22.68;100.00;96911.25;5024980;28;19925;-71
2023/07/25 01:38:23;;;;;;;;;;;;;;;22.39;100.00;96916.22;5041027;28;19925;-71
2023/07/25 01:40:49;;;;;;;;;;;;;;;22.10;100.00;96910.66;5039068;28;20036;-71
2023/07/25 01:43:17;;;;;;;;;;;;;;;22.10;100.00;96916.84;5021501;28;19981;-71
2023/07/25 01:45:43;;;;;;;;;;;;;;;22.31;100.00;96905.59;5044606;28;19953;-71
2023/07/25 01:48:10;;;;;;;;;;;;;;;22.39;100.00;96908.06;5042319;28;19977;-71
2023/07/25 01:50:36;;;;;;;;;;;;;;;22.46;100.00;96894.56;5038988;28;19955;-71
2023/07/25 01:53:02;;;;;;;;;;;;;;;22.52;100.00;96901.28;5038962;28;19961;-71
2023/07/25 01:55:29;;;;;;;;;;;;;;;22.54;100.00;96893.53;5023386;28;19936;-71
2023/07/25 01:57:55;;;;;;;;;;;;;;;22.36;100.00;96902.53;5042250;28;20018;-71
2023/07/25 02:00:23;;;;;;;;;;;;;;;22.41;100.00;96894.06;5041083;28;19929;-72
2023/07/25 02:02:49;;;;;;;;;;;;;;;22.30;100.00;96898.56;5038697;28;20395;-71
2023/07/25 02:05:15;;;;;;;;;;;;;;;22.35;100.00;96904.47;5039309;28;19961;-71
2023/07/25 02:07:42;;;;;;;;;;;;;;;22.36;100.00;96906.06;5042204;28;19925;-71
2023/07/25 02:10:09;;;;;;;;;;;;;;;22.40;100.00;96904.19;5024643;28;20008;-71
2023/07/25 02:12:35;;;;;;;;;;;;;;;22.45;100.00;96901.16;5039131;28;19926;-71
2023/07/25 02:15:01;;;;;;;;;;;;;;;22.42;100.00;96898.38;5039325;28;20387;-71
2023/07/25 02:17:29;;;;;;;;;;;;;;;22.32;100.00;96901.69;5025921;28;19925;-71
2023/07/25 02:19:55;;;;;;;;;;;;;;;22.42;100.00;96903.81;5042069;28;19988;-71
2023/07/25 02:22:22;;;;;;;;;;;;;;;22.43;100.00;96908.91;5023157;28;20560;-71
2023/07/25 02:24:48;;;;;;;;;;;;;;;22.44;100.00;96906.94;5038803;28;19972;-71
2023/07/25 02:27:14;;;;;;;;;;;;;;;22.48;100.00;96903.16;5038829;28;20001;-71
2023/07/25 02:29:41;;;;;;;;;;;;;;;22.48;100.00;96900.44;5041987;28;19944;-71
2023/07/25 02:32:07;;;;;;;;;;;;;;;22.46;100.00;96891.84;5024312;28;20673;-71
2023/07/25 02:34:35;;;;;;;;;;;;;;;22.47;100.00;96892.63;5038852;28;20015;-71
2023/07/25 02:37:01;;;;;;;;;;;;;;;22.47;100.00;96877.09;5038360;28;19936;-71
2023/07/25 02:39:28;;;;;;;;;;;;;;;22.46;100.00;96877.47;5040527;28;20127;-71
2023/07/25 02:41:54;;;;;;;;;;;;;;;22.45;100.00;96865.78;5042093;28;19987;-71
2023/07/25 02:44:20;;;;;;;;;;;;;;;22.40;100.00;96860.66;5041137;28;19979;-71
2023/07/25 02:46:47;;;;;;;;;;;;;;;22.37;100.00;96855.97;5040650;28;19993;-71
2023/07/25 02:49:13;;;;;;;;;;;;;;;22.18;100.00;96853.31;5038733;28;20456;-71
2023/07/25 02:51:41;;;;;;;;;;;;;;;22.13;100.00;96850.88;5024072;28;19932;-71
2023/07/25 02:54:07;;;;;;;;;;;;;;;22.00;100.00;96849.50;5042727;28;19980;-71
2023/07/25 02:56:33;;;;;;;;;;;;;;;21.60;100.00;96838.25;5042650;28;20334;-71
2023/07/25 02:59:00;;;;;;;;;;;;;;;21.19;100.00;96823.50;5041985;28;19971;-71
2023/07/25 03:01:26;;;;;;;;;;;;;;;20.86;100.00;96815.78;5044055;28;19925;-71
2023/07/25 03:03:52;;;;;;;;;;;;;;;20.84;100.00;96827.00;5045597;28;19936;-71
2023/07/25 03:06:19;;;;;;;;;;;;;;;21.13;100.00;96816.78;5044908;28;19940;-71
2023/07/25 03:08:47;;;;;;;;;;;;;;;21.57;100.00;96809.09;5041859;28;19925;-71
2023/07/25 03:11:13;;;;;;;;;;;;;;;21.83;100.00;96809.16;5041911;28;19988;-71
2023/07/25 03:13:39;;;;;;;;;;;;;;;22.00;100.00;96811.44;5045216;28;20365;-70
2023/07/25 03:16:06;;;;;;;;;;;;;;;22.09;100.00;96820.16;5047188;28;20027;-70
2023/07/25 03:18:32;;;;;;;;;;;;;;;22.16;100.00;96831.13;5042260;28;19931;-71
2023/07/25 03:20:58;;;;;;;;;;;;;;;21.97;100.00;96840.13;5041901;28;19993;-71
2023/07/25 03:23:25;;;;;;;;;;;;;;;21.84;100.00;96832.50;5043379;28;19926;-71
2023/07/25 03:25:52;;;;;;;;;;;;;;;21.93;100.00;96827.63;5027423;28;19976;-71
2023/07/25 03:28:19;;;;;;;;;;;;;;;22.04;100.00;96818.50;5044339;28;19960;-71
2023/07/25 03:30:45;;;;;;;;;;;;;;;22.02;100.00;96822.72;5041317;28;19926;-71
2023/07/25 03:33:11;;;;;;;;;;;;;;;21.61;100.00;96826.22;5024043;28;19964;-71
2023/07/25 03:35:38;;;;;;;;;;;;;;;21.59;100.00;96825.81;5041489;28;19953;-71
2023/07/25 03:38:04;;;;;;;;;;;;;;;21.74;100.00;96827.66;5041261;28;19940;-71
2023/07/25 03:40:30;;;;;;;;;;;;;;;21.57;100.00;96844.41;5043623;28;19968;-70
2023/07/25 03:42:58;;;;;;;;;;;;;;;21.25;100.00;96844.59;5044774;28;19959;-70
2023/07/25 03:45:24;;;;;;;;;;;;;;;20.90;100.00;96841.09;5044571;28;19963;-70
2023/07/25 03:47:51;;;;;;;;;;;;;;;20.68;100.00;96847.97;5044606;28;19976;-70
2023/07/25 03:50:17;;;;;;;;;;;;;;;20.11;100.00;96853.97;5044129;28;19980;-70
2023/07/25 03:52:43;;;;;;;;;;;;;;;20.11;100.00;96858.59;5041201;28;19964;-71
2023/07/25 03:55:10;;;;;;;;;;;;;;;20.03;100.00;96846.00;5023694;28;20040;-70
2023/07/25 03:57:36;;;;;;;;;;;;;;;20.01;100.00;96856.41;5044383;28;19980;-71
2023/07/25 04:00:04;;;;;;;;;;;;;;;19.99;100.00;96862.19;5027064;28;19986;-71
2023/07/25 04:02:31;;;;;;;;;;;;;;;19.69;100.00;96871.81;5042011;28;19953;-71
2023/07/25 04:04:57;;;;;;;;;;;;;;;19.50;100.00;96875.19;5040857;28;19953;-71
2023/07/25 04:07:23;;;;;;;;;;;;;;;19.16;100.00;96871.13;5042465;28;19925;-71
2023/07/25 04:09:50;;;;;;;;;;;;;;;18.91;100.00;96875.00;5044373;28;19980;-70
2023/07/25 04:12:16;;;;;;;;;;;;;;;18.74;100.00;96872.56;5043954;28;19953;-71
2023/07/25 04:14:42;;;;;;;;;;;;;;;18.90;100.00;96878.06;5041390;28;19996;-71
2023/07/25 04:17:10;;;;;;;;;;;;;;;18.71;100.00;96884.06;5025392;28;20319;-71
2023/07/25 04:19:36;;;;;;;;;;;;;;;18.54;100.00;96887.00;5043800;28;19925;-70
2023/07/25 04:22:03;;;;;;;;;;;;;;;18.34;100.00;96888.69;5044196;28;19989;-70
2023/07/25 04:24:29;;;;;;;;;;;;;;;18.05;100.00;96896.97;5041611;28;20317;-70
2023/07/25 04:26:56;;;;;;;;;;;;;;;18.17;100.00;96899.69;5040455;28;19948;-71
2023/07/25 04:29:22;;;;;;;;;;;;;;;18.19;100.00;96892.03;5024313;28;19940;-71
2023/07/25 04:31:48;;;;;;;;;;;;;;;18.19;100.00;96903.66;5043974;28;19959;-71
2023/07/25 04:34:16;;;;;;;;;;;;;;;18.49;100.00;96895.31;5043924;28;19925;-71
2023/07/25 04:36:42;;;;;;;;;;;;;;;18.78;100.00;96904.00;5040679;28;19976;-71
2023/07/25 04:39:09;;;;;;;;;;;;;;;18.98;100.00;96899.56;5040363;28;19952;-71
2023/07/25 04:41:35;;;;;;;;;;;;;;;19.09;100.00;96900.69;5043520;28;19925;-71
2023/07/25 04:44:02;;;;;;;;;;;;;;;19.01;100.00;96907.00;5042466;28;19929;-72
2023/07/25 04:46:30;;;;;;;;;;;;;;;18.80;100.00;96906.38;5043989;28;19925;-71
2023/07/25 04:48:56;;;;;;;;;;;;;;;18.99;100.00;96914.69;5022807;28;19939;-71
2023/07/25 04:51:24;;;;;;;;;;;;;;;19.02;100.00;96895.06;5041417;28;19925;-71
2023/07/25 04:53:50;;;;;;;;;;;;;;;18.81;100.00;96892.53;5043671;28;19997;-71
2023/07/25 04:56:16;;;;;;;;;;;;;;;18.85;100.00;96881.78;5025429;28;19925;-71
2023/07/25 04:58:43;;;;;;;;;;;;;;;18.88;100.00;96904.69;5039987;28;20009;-71
2023/07/25 05:01:12;;;;;;;;;;;;;;;19.07;100.00;96883.19;5039858;28;19926;-71
2023/07/25 05:03:38;;;;;;;;;;;;;;;19.38;100.00;96889.53;5043275;28;19948;-71
2023/07/25 05:06:04;;;;;;;;;;;;;;;19.14;100.00;96886.91;5043321;28;19925;-71
2023/07/25 05:08:32;;;;;;;;;;;;;;;19.05;100.00;96897.09;5023149;28;20012;-71
2023/07/25 05:11:00;;;;;;;;;;;;;;;18.89;100.00;96909.75;5039769;28;20000;-71
2023/07/25 05:13:26;;;;;;;;;;;;;;;18.69;100.00;96905.25;5041367;28;19948;-71
2023/07/25 05:15:52;;;;;;;;;;;;;;;18.53;100.00;96890.84;5045284;28;19925;-71
2023/07/25 05:18:19;;;;;;;;;;;;;;;18.33;100.00;96898.69;5042025;28;19925;-71
2023/07/25 05:20:45;;;;;;;;;;;;;;;18.20;100.00;96893.59;5039694;28;19926;-70
2023/07/25 05:23:12;;;;;;;;;;;;;;;18.16;100.00;96893.50;5039577;28;19993;-72
2023/07/25 05:25:40;;;;;;;;;;;;;;;18.26;100.00;96894.97;5043099;28;20007;-70
2023/07/25 05:28:06;;;;;;;;;;;;;;;18.09;100.00;96887.88;5043021;28;19952;-70
2023/07/25 05:30:32;;;;;;;;;;;;;;;18.15;100.00;96897.31;5022705;28;19948;-71
2023/07/25 05:32:59;;;;;;;;;;;;;;;18.16;100.00;96887.31;5039205;28;19937;-71
2023/07/25 05:35:25;;;;;;;;;;;;;;;18.13;100.00;96888.78;5023352;28;20184;-71
2023/07/25 05:37:51;;;;;;;;;;;;;;;18.10;100.00;96889.44;5042709;28;19925;-71
2023/07/25 05:40:18;;;;;;;;;;;;;;;18.06;100.00;96891.22;5042137;28;19920;-71
2023/07/25 05:42:46;;;;;;;;;;;;;;;18.20;100.00;96885.50;5039361;28;19933;-71
2023/07/25 05:45:13;;;;;;;;;;;;;;;18.29;100.00;96881.56;5041405;28;19925;-71
2023/07/25 05:47:39;;;;;;;;;;;;;;;18.30;100.00;96879.66;5013283;28;20231;-71
2023/07/25 05:50:06;;;;;;;;;;;;;;;18.33;100.00;96868.16;5030933;28;19961;-71
2023/07/25 05:52:33;;;;;;;;;;;;;;;18.35;100.00;96858.59;5031004;28;19933;-71
2023/07/25 05:54:59;;;;;;;;;;;;;;;18.52;100.00;96854.13;5031005;28;19956;-71
2023/07/25 05:57:25;;;;;;;;;;;;;;;18.69;100.00;96862.75;5030994;28;19968;-71
2023/07/25 05:59:53;;;;;;;;;;;;;;;18.71;100.00;96852.41;5031149;28;19933;-71
2023/07/25 06:02:20;;;;;;;;;;;;;;;18.56;100.00;96852.31;5013569;28;19933;-71
2023/07/25 06:04:47;;;;;;;;;;;;;;;18.52;100.00;96851.41;5031675;28;20294;-71
2023/07/25 06:07:14;;;;;;;;;;;;;;;18.63;100.00;96855.25;5032818;28;19932;-72
2023/07/25 06:09:40;;;;;;;;;;;;;;;18.57;100.00;96853.91;5031895;28;19925;-71
2023/07/25 06:12:07;;;;;;;;;;;;;;;18.80;100.00;96844.16;5022790;28;19946;-70
2023/07/25 06:14:33;;;;;;;;;;;;;;;18.65;100.00;96823.22;5042011;28;20003;-72
2023/07/25 06:17:01;;;;;;;;;;;;;;;18.53;100.00;96813.22;5043264;28;20008;-71
2023/07/25 06:19:27;;;;;;;;;;;;;;;18.39;100.00;96811.97;5042355;28;19969;-71
2023/07/25 06:21:54;;;;;;;;;;;;;;;18.44;100.00;96806.34;5043283;28;19984;-71
2023/07/25 06:24:20;;;;;;;;;;;;;;;18.51;100.00;96812.75;5042127;28;20262;-71
2023/07/25 06:26:47;;;;;;;;;;;;;;;18.42;100.00;96797.75;5039256;28;19960;-71
2023/07/25 06:29:13;;;;;;;;;;;;;;;18.45;100.00;96802.50;5042262;28;20012;-71
2023/07/25 06:31:40;;;;;;;;;;;;;;;18.46;100.00;96799.47;5035154;28;19926;-71
2023/07/25 06:34:08;;;;;;;;;;;;;;;18.46;100.00;96782.44;5034538;28;19925;-71
2023/07/25 06:36:34;;;;;;;;;;;;;;;18.43;100.00;96773.09;5034447;28;19958;-72
2023/07/25 06:39:01;;;;;;;;;;;;;;;18.61;100.00;96765.53;5034577;28;19964;-72
2023/07/25 06:41:27;;;;;;;;;;;;;;;18.70;100.00;96766.19;5034680;28;19953;-72
2023/07/25 06:43:54;;;;;;;;;;;;;;;19.04;100.00;96760.22;5034583;28;19931;-72
2023/07/25 06:46:21;;;;;;;;;;;;;;;19.02;100.00;96757.06;5044927;28;19932;-72
2023/07/25 06:48:48;;;;;;;;;;;;;;;19.07;100.00;96748.69;5042750;28;19925;-72
2023/07/25 06:51:15;;;;;;;;;;;;;;;19.04;100.00;96738.56;5042308;28;19975;-71
2023/07/25 06:53:42;;;;;;;;;;;;;;;19.10;100.00;96742.59;5028055;28;19984;-71
2023/07/25 06:56:08;;;;;;;;;;;;;;;18.99;100.00;96752.34;5046339;28;19968;-71
2023/07/25 06:58:35;;;;;;;;;;;;;;;19.01;100.00;96752.78;5043309;28;19925;-71
2023/07/25 07:01:01;;;;;;;;;;;;;;;19.13;100.00;96758.13;5043166;28;19933;-71
2023/07/25 07:03:27;;;;;;;;;;;;;;;19.18;100.00;96766.03;5044373;28;19953;-71
2023/07/25 07:05:54;;;;;;;;;;;;;;;19.15;100.00;96774.03;5045759;28;19925;-71
2023/07/25 07:08:22;;;;;;;;;;;;;;;19.27;100.00;96771.28;5044663;28;19925;-71
2023/07/25 07:10:51;;;;;;;;;;;;;;;19.49;100.00;96761.81;5042276;28;19925;-71
2023/07/25 07:13:18;;;;;;;;;;;;;;;19.88;100.00;96760.88;5042896;28;19937;-72
2023/07/25 07:15:45;;;;;;;;;;;;;;;19.83;100.00;96761.13;5048013;28;19926;-71
2023/07/25 07:18:11;;;;;;;;;;;;;;;19.88;100.00;96767.06;5045727;28;19925;-71
2023/07/25 07:20:37;;;;;;;;;;;;;;;19.79;100.00;96774.59;5024765;28;19926;-72
2023/07/25 07:23:04;;;;;;;;;;;;;;;20.02;100.00;96782.91;5042457;28;20444;-71
2023/07/25 07:25:31;;;;;;;;;;;;;;;19.91;100.00;96782.63;5044852;28;19926;-71
2023/07/25 07:27:58;;;;;;;;;;;;;;;20.06;100.00;96785.66;5046072;28;20012;-71
2023/07/25 07:30:24;;;;;;;;;;;;;;;19.99;100.00;96790.94;5044206;28;19960;-72
2023/07/25 07:32:50;;;;;;;;;;;;;;;19.89;100.00;96798.47;5042467;28;19926;-72
2023/07/25 07:35:18;;;;;;;;;;;;;;;20.09;100.00;96809.34;5043907;28;19957;-71
2023/07/25 07:37:45;;;;;;;;;;;;;;;20.23;100.00;96807.78;5046384;28;19994;-72
2023/07/25 07:40:11;;;;;;;;;;;;;;;20.28;100.00;96798.63;5045493;28;20040;-72
2023/07/25 07:42:39;;;;;;;;;;;;;;;20.44;100.00;96802.88;5043409;28;19925;-72
2023/07/25 07:45:06;;;;;;;;;;;;;;;20.32;100.00;96808.41;5045587;28;19953;-71
2023/07/25 07:47:32;;;;;;;;;;;;;;;20.35;100.00;96807.72;5036973;28;19935;-72
2023/07/25 07:49:59;;;;;;;;;;;;;;;20.66;100.00;96790.59;5046694;28;19952;-72
2023/07/25 07:52:25;;;;;;;;;;;;;;;20.58;100.00;96788.06;5043749;28;19989;-72
2023/07/25 07:54:52;;;;;;;;;;;;;;;20.42;100.00;96793.53;5025301;28;19932;-72
2023/07/25 07:57:18;;;;;;;;;;;;;;;20.61;100.00;96793.56;5044201;28;19976;-72
2023/07/25 07:59:46;;;;;;;;;;;;;;;20.64;100.00;96792.09;5045697;28;19988;-71
2023/07/25 08:02:12;;;;;;;;;;;;;;;20.50;100.00;96808.81;5045507;28;19931;-73
2023/07/25 08:04:38;;;;;;;;;;;;;;;20.30;100.00;96805.25;5041841;28;19975;-72
2023/07/25 08:07:05;;;;;;;;;;;;;;;20.31;100.00;96796.00;5041910;28;19926;-72
2023/07/25 08:09:31;;;;;;;;;;;;;;;20.52;100.00;96789.50;5044424;28;19961;-72
2023/07/25 08:11:58;;;;;;;;;;;;;;;20.84;100.00;96788.25;5028520;28;19956;-71
2023/07/25 08:14:25;;;;;;;;;;;;;;;21.00;100.00;96788.97;5027111;28;19936;-72
2023/07/25 08:16:52;;;;;;;;;;;;;;;20.71;100.00;96793.00;5044482;28;19921;-71
2023/07/25 08:19:19;;;;;;;;;;;;;;;20.61;100.00;96788.13;5042252;28;19949;-72
2023/07/25 08:21:45;;;;;;;;;;;;;;;20.37;100.00;96774.81;5028015;28;20016;-72
2023/07/25 08:24:11;;;;;;;;;;;;;;;20.74;100.00;96780.66;5047195;28;19925;-72
2023/07/25 08:26:38;;;;;;;;;;;;;;;20.68;100.00;96773.94;5041640;28;19926;-72
2023/07/25 08:29:04;;;;;;;;;;;;;;;20.37;100.00;96775.59;5040864;28;19929;-73
2023/07/25 08:31:30;;;;;;;;;;;;;;;20.38;100.00;96774.47;5043499;28;19957;-72
2023/07/25 08:33:58;;;;;;;;;;;;;;;20.59;100.00;96766.00;5044513;28;19953;-72
2023/07/25 08:36:24;;;;;;;;;;;;;;;20.94;100.00;96765.97;5042647;28;19967;-72
2023/07/25 08:38:51;;;;;;;;;;;;;;;21.07;100.00;96767.41;5040903;28;19949;-72
2023/07/25 08:41:20;;;;;;;;;;;;;;;21.14;100.00;96772.97;5041203;28;19925;-72
2023/07/25 08:43:46;;;;;;;;;;;;;;;20.89;100.00;96774.38;5043951;28;19988;-71
2023/07/25 08:46:14;;;;;;;;;;;;;;;20.53;100.00;96774.78;5045964;28;19924;-71
2023/07/25 08:48:41;;;;;;;;;;;;;;;20.81;100.00;96764.53;5032219;28;19964;-72
2023/07/25 08:51:14;;;;;;;;;;;;;;;20.94;100.00;96758.63;5031492;28;19925;-71
2023/07/25 08:53:42;;;;;;;;;;;;;;;20.93;100.00;96758.97;5022365;28;19989;-73
2023/07/25 08:56:09;;;;;;;;;;;;;;;21.14;100.00;96755.91;5022552;28;19932;-72
2023/07/25 08:58:36;;;;;;;;;;;;;;;21.11;100.00;96751.97;5043091;28;19992;-72
2023/07/25 09:01:02;;;;;;;;;;;;;;;20.70;100.00;96752.69;5025999;28;19967;-73
2023/07/25 09:03:29;;;;;;;;;;;;;;;20.81;100.00;96748.25;5041468;28;19980;-72
2023/07/25 09:05:58;;;;;;;;;;;;;;;20.91;100.00;96742.25;5040208;28;19926;-72
2023/07/25 09:08:26;;;;;;;;;;;;;;;20.91;100.00;96753.13;5041652;28;20012;-71
2023/07/25 09:10:53;;;;;;;;;;;;;;;20.78;100.00;96743.53;5043360;28;19929;-72
2023/07/25 09:13:20;;;;;;;;;;;;;;;20.90;100.00;96737.97;5042827;28;19952;-72
2023/07/25 09:15:46;;;;;;;;;;;;;;;21.12;100.00;96720.19;5044514;28;19959;-72
2023/07/25 09:18:13;;;;;;;;;;;;;;;20.77;100.00;96734.59;5043333;28;19925;-72
2023/07/25 09:20:39;;;;;;;;;;;;;;;20.85;100.00;96733.63;5040007;28;19926;-72
2023/07/25 09:23:05;;;;;;;;;;;;;;;21.05;100.00;96739.81;5039816;28;19925;-72
2023/07/25 09:25:34;;;;;;;;;;;;;;;21.15;100.00;96741.19;5024921;28;19936;-72
2023/07/25 09:28:00;;;;;;;;;;;;;;;21.06;100.00;96743.31;5025579;28;19925;-72
2023/07/25 09:30:27;;;;;;;;;;;;;;;21.27;100.00;96744.53;5041329;28;19929;-72
2023/07/25 09:32:54;;;;;;;;;;;;;;;21.38;100.00;96737.38;5039809;28;19936;-72
2023/07/25 09:35:22;;;;;;;;;;;;;;;21.45;100.00;96729.34;5040554;28;19992;-72
2023/07/25 09:37:51;;;;;;;;;;;;;;;21.36;100.00;96728.00;5025369;28;19965;-71
2023/07/25 09:40:18;;;;;;;;;;;;;;;21.38;100.00;96726.50;5042380;28;19972;-72
2023/07/25 09:42:46;;;;;;;;;;;;;;;21.42;100.00;96724.63;5039400;28;20001;-71
2023/07/25 09:45:13;;;;;;;;;;;;;;;21.51;100.00;96725.16;5041525;28;20052;-72
2023/07/25 09:47:39;;;;;;;;;;;;;;;21.32;100.00;96725.22;5042679;28;19932;-72
2023/07/25 09:50:07;;;;;;;;;;;;;;;20.98;100.00;96721.44;5041502;28;19925;-71
2023/07/25 09:52:38;;;;;;;;;;;;;;;20.87;100.00;96728.63;5040015;28;19937;-72
2023/07/25 09:55:05;;;;;;;;;;;;;;;20.92;100.00;96732.97;5021724;28;19996;-72
2023/07/25 09:57:32;;;;;;;;;;;;;;;21.04;100.00;96735.53;5041877;28;19925;-72
2023/07/25 09:59:59;;;;;;;;;;;;;;;21.22;100.00;96736.69;5043168;28;19925;-72
2023/07/25 10:02:26;;;;;;;;;;;;;;;21.38;100.00;96745.53;5041336;28;19925;-72
2023/07/25 10:04:55;;;;;;;;;;;;;;;21.48;100.00;96761.22;5039443;28;19968;-73
2023/07/25 10:07:23;;;;;;;;;;;;;;;21.54;100.00;96757.03;5040563;28;19972;-72
2023/07/25 10:09:50;;;;;;;;;;;;;;;21.48;100.00;96780.22;5042882;28;19925;-72
2023/07/25 10:12:17;;;;;;;;;;;;;;;21.40;100.00;96769.59;5042418;28;19936;-71
2023/07/25 10:14:43;;;;;;;;;;;;;;;20.70;100.00;96780.59;5039397;28;19932;-71
2023/07/25 10:17:11;;;;;;;;;;;;;;;20.10;100.00;96779.22;5041634;28;19933;-72
2023/07/25 10:19:48;;;;;;;;;;;;;;;20.63;100.00;96785.88;5042834;28;19925;-72
2023/07/25 10:22:15;;;;;;;;;;;;;;;20.81;100.00;96781.59;5042455;28;19933;-72
2023/07/25 10:24:41;;;;;;;;;;;;;;;20.88;100.00;96783.69;5039409;28;19925;-72
2023/07/25 10:27:09;;;;;;;;;;;;;;;20.96;100.00;96788.09;5039186;28;20346;-72
2023/07/25 10:29:36;;;;;;;;;;;;;;;20.54;100.00;96770.94;5042082;28;19933;-71
2023/07/25 10:32:03;;;;;;;;;;;;;;;19.96;100.00;96775.38;5042764;28;19975;-72
2023/07/25 10:34:43;;;;;;;;;;;;;;;20.35;100.00;96764.34;5040413;28;19932;-71
2023/07/25 10:37:20;;;;;;;;;;;;;;;20.11;100.00;96756.41;5038994;28;19953;-71
2023/07/25 10:39:46;;;;;;;;;;;;;;;20.22;100.00;96760.13;5030515;28;19940;-71
2023/07/25 10:42:15;;;;;;;;;;;;;;;20.59;100.00;96754.38;5030638;28;19937;-71
2023/07/25 10:44:41;;;;;;;;;;;;;;;20.74;100.00;96759.75;5030980;28;20016;-71
2023/07/25 10:47:22;;;;;;;;;;;;;;;20.92;100.00;96747.31;5044064;28;19922;-71
2023/07/25 10:49:55;;;;;;;;;;;;;;;20.98;100.00;96754.03;5036952;28;19945;-71
2023/07/25 10:52:37;;;;;;;;;;;;;;;21.06;100.00;96759.59;5036683;28;19972;-71
2023/07/25 10:55:04;;;;;;;;;;;;;;;21.14;100.00;96772.19;5013480;28;19952;-71
2023/07/25 10:57:30;;;;;;;;;;;;;;;21.22;100.00;96769.28;5030803;28;19972;-71
2023/07/25 10:59:57;;;;;;;;;;;;;;;21.27;100.00;96760.03;5030382;28;19926;-71
2023/07/25 11:02:30;;;;;;;;;;;;;;;21.35;100.00;96773.38;5030488;28;19926;-72
2023/07/25 11:05:12;;;;;;;;;;;;;;;21.44;100.00;96775.88;5012856;28;20422;-71
2023/07/25 11:07:40;;;;;;;;;;;;;;;21.49;100.00;96784.50;5030223;28;19926;-71
2023/07/25 11:10:06;;;;;;;;;;;;;;;21.16;100.00;96776.13;5030556;28;19925;-72
2023/07/25 11:12:33;;;;;;;;;;;;;;;20.76;100.00;96778.38;5030419;28;19925;-71
2023/07/25 11:15:01;;;;;;;;;;;;;;;20.96;100.00;96794.31;5031584;28;20036;-72
2023/07/25 11:17:28;;;;;;;;;;;;;;;21.12;100.00;96779.91;5045523;28;19994;-72
2023/07/25 11:19:54;;;;;;;;;;;;;;;21.20;100.00;96779.69;5045815;28;19925;-72
2023/07/25 11:22:21;;;;;;;;;;;;;;;21.22;100.00;96779.34;5045023;28;19925;-71
2023/07/25 11:24:48;;;;;;;;;;;;;;;21.32;100.00;96784.19;5024435;28;19930;-72
2023/07/25 11:27:15;;;;;;;;;;;;;;;21.41;100.00;96785.53;5042035;28;19989;-71
2023/07/25 11:29:42;;;;;;;;;;;;;;;21.29;100.00;96791.09;5044131;28;19932;-71
2023/07/25 11:32:08;;;;;;;;;;;;;;;21.16;100.00;96789.72;5045449;28;19952;-71
2023/07/25 11:34:35;;;;;;;;;;;;;;;20.98;100.00;96781.16;5042229;28;19984;-71
2023/07/25 11:37:08;;;;;;;;;;;;;;;21.00;100.00;96783.53;5041808;28;19936;-71
2023/07/25 11:39:34;;;;;;;;;;;;;;;21.11;100.00;96783.75;5044160;28;19971;-71
2023/07/25 11:42:02;;;;;;;;;;;;;;;21.15;100.00;96790.06;5045324;28;19948;-71
2023/07/25 11:44:28;;;;;;;;;;;;;;;21.01;100.00;96787.81;5043388;28;19926;-70
2023/07/25 11:46:55;;;;;;;;;;;;;;;20.94;100.00;96787.69;5043640;28;19953;-70
2023/07/25 11:49:22;;;;;;;;;;;;;;;21.19;100.00;96788.19;5024621;28;19997;-70
2023/07/25 11:51:48;;;;;;;;;;;;;;;20.84;100.00;96783.59;5044720;28;19953;-70
2023/07/25 11:54:15;;;;;;;;;;;;;;;20.98;100.00;96783.88;5044540;28;19925;-71
2023/07/25 11:56:42;;;;;;;;;;;;;;;20.99;100.00;96784.66;5041410;28;20012;-70
2023/07/25 11:59:12;;;;;;;;;;;;;;;20.79;100.00;96773.03;5041308;28;19926;-70
2023/07/25 12:01:39;;;;;;;;;;;;;;;20.92;100.00;96768.25;5044291;28;19925;-71
2023/07/25 12:04:12;;;;;;;;;;;;;;;20.91;100.00;96753.13;5044822;28;19972;-71
2023/07/25 12:06:39;;;;;;;;;;;;;;;20.80;100.00;96757.53;5041141;28;19926;-71
2023/07/25 12:09:05;;;;;;;;;;;;;;;20.96;100.00;96759.03;5023241;28;19925;-71
2023/07/25 12:11:33;;;;;;;;;;;;;;;21.03;100.00;96761.09;5025578;28;19932;-71
2023/07/25 12:14:01;;;;;;;;;;;;;;;21.08;100.00;96743.72;5044476;28;19940;-71
2023/07/25 12:16:32;;;;;;;;;;;;;;;21.12;100.00;96748.13;5044715;28;19936;-71
2023/07/25 12:19:00;;;;;;;;;;;;;;;21.12;100.00;96744.63;5040887;28;19965;-71
2023/07/25 12:21:27;;;;;;;;;;;;;;;21.15;100.00;96746.63;5042181;28;19997;-70
2023/07/25 12:23:54;;;;;;;;;;;;;;;20.80;100.00;96746.66;5044084;28;19948;-70
2023/07/25 12:26:21;;;;;;;;;;;;;;;20.81;100.00;96738.19;5042790;28;20232;-71
2023/07/25 12:28:48;;;;;;;;;;;;;;;20.83;100.00;96735.88;5022822;28;20009;-71
2023/07/25 12:31:14;;;;;;;;;;;;;;;20.65;100.00;96745.59;5040425;28;19936;-70
2023/07/25 12:33:43;;;;;;;;;;;;;;;20.71;100.00;96743.38;5031996;28;20024;-70